createdAt,value
2018-09-19T00:02:04.323Z,8.03
2018-09-19T00:04:32.739Z,7.13
2018-09-19T00:07:01.217Z,7.70
2018-09-19T00:09:29.778Z,7.43
2018-09-19T00:11:58.332Z,7.20
2018-09-19T00:14:27.055Z,7.83
2018-09-19T00:16:55.769Z,7.87
2018-09-19T00:19:24.324Z,8.30
2018-09-19T00:21:52.790Z,6.90
2018-09-19T00:24:21.462Z,8.03
2018-09-19T00:26:49.970Z,7.87
2018-09-19T00:29:18.397Z,8.30
2018-09-19T00:31:46.943Z,8.37
2018-09-19T00:34:15.378Z,9.70
2018-09-19T00:36:43.838Z,8.03
2018-09-19T00:39:12.419Z,9.90
2018-09-19T00:41:40.831Z,8.20
2018-09-19T00:44:09.448Z,8.07
2018-09-19T00:46:38.059Z,8.80
2018-09-19T00:49:06.698Z,8.30
2018-09-19T00:51:35.186Z,8.00
2018-09-19T00:54:03.809Z,8.70
2018-09-19T00:56:32.318Z,8.20
2018-09-19T00:59:00.931Z,8.40
2018-09-19T01:01:29.536Z,7.83
2018-09-19T01:03:58.052Z,8.90
2018-09-19T01:06:26.542Z,8.10
2018-09-19T01:08:55.030Z,8.77
2018-09-19T01:11:23.450Z,8.33
2018-09-19T01:13:51.987Z,8.10
2018-09-19T01:16:20.519Z,7.70
2018-09-19T01:18:48.967Z,9.73
2018-09-19T01:21:17.560Z,7.90
2018-09-19T01:23:46.194Z,8.47
2018-09-19T01:26:14.576Z,8.20
2018-09-19T01:28:43.138Z,8.43
2018-09-19T01:31:11.726Z,7.70
2018-09-19T01:33:40.304Z,8.10
2018-09-19T01:36:08.679Z,8.63
2018-09-19T01:38:37.191Z,7.80
2018-09-19T01:41:05.640Z,6.77
2018-09-19T01:43:34.070Z,7.70
2018-09-19T01:46:02.526Z,8.37
2018-09-19T01:48:31.225Z,7.60
2018-09-19T01:50:59.678Z,8.90
2018-09-19T01:53:28.230Z,7.83
2018-09-19T01:55:56.819Z,7.57
2018-09-19T01:58:25.247Z,7.07
2018-09-19T02:00:53.791Z,7.87
2018-09-19T02:03:22.264Z,7.90
2018-09-19T02:05:50.791Z,7.40
2018-09-19T02:08:19.331Z,8.70
2018-09-19T02:10:47.722Z,8.30
2018-09-19T02:13:16.280Z,7.13
2018-09-19T02:15:44.927Z,7.40
2018-09-19T02:18:13.343Z,7.97
2018-09-19T02:20:41.786Z,8.13
2018-09-19T02:23:10.242Z,7.47
2018-09-19T02:25:38.708Z,6.80
2018-09-19T02:28:07.616Z,8.43
2018-09-19T02:30:36.389Z,7.33
2018-09-19T02:33:04.932Z,6.90
2018-09-19T02:35:33.415Z,6.97
2018-09-19T02:38:02.035Z,6.77
2018-09-19T02:40:30.383Z,6.97
2018-09-19T02:42:58.907Z,7.03
2018-09-19T02:45:27.554Z,8.40
2018-09-19T02:47:55.994Z,7.60
2018-09-19T02:50:24.458Z,7.00
2018-09-19T02:52:55.506Z,6.50
2018-09-19T02:55:25.217Z,7.50
2018-09-19T02:57:54.022Z,6.33
2018-09-19T03:00:22.548Z,7.57
2018-09-19T03:02:51.702Z,6.70
2018-09-19T03:05:20.168Z,6.87
2018-09-19T03:07:48.723Z,6.90
2018-09-19T03:10:17.256Z,6.80
2018-09-19T03:12:45.729Z,6.97
2018-09-19T03:15:14.178Z,7.20
2018-09-19T03:17:42.887Z,7.03
2018-09-19T03:20:11.210Z,7.10
2018-09-19T03:22:40.028Z,7.53
2018-09-19T03:25:08.607Z,7.37
2018-09-19T03:27:37.266Z,6.40
2018-09-19T03:30:06.484Z,6.47
2018-09-19T03:32:35.066Z,7.20
2018-09-19T03:35:03.522Z,6.97
2018-09-19T03:37:32.284Z,5.90
2018-09-19T03:40:00.808Z,6.30
2018-09-19T03:42:29.302Z,7.87
2018-09-19T03:44:57.771Z,7.40
2018-09-19T03:47:26.223Z,7.80
2018-09-19T03:49:54.888Z,6.20
2018-09-19T03:52:23.498Z,5.97
2018-09-19T03:54:51.954Z,6.57
2018-09-19T03:57:20.358Z,7.30
2018-09-19T03:59:48.783Z,6.80
2018-09-19T04:02:17.372Z,7.03
2018-09-19T04:04:45.854Z,7.90
2018-09-19T04:07:14.379Z,7.70
2018-09-19T04:09:42.815Z,7.43
2018-09-19T04:12:11.315Z,7.97
2018-09-19T04:14:39.919Z,8.07
2018-09-19T04:17:08.359Z,6.87
2018-09-19T04:19:36.890Z,7.10
2018-09-19T04:22:05.492Z,7.53
2018-09-19T04:24:33.916Z,6.87
2018-09-19T04:27:02.352Z,6.43
2018-09-19T04:29:30.986Z,6.30
2018-09-19T04:31:59.442Z,6.53
2018-09-19T04:34:27.982Z,6.90
2018-09-19T04:36:56.503Z,7.00
2018-09-19T04:39:24.927Z,6.83
2018-09-19T04:41:53.374Z,7.30
2018-09-19T04:44:21.890Z,7.20
2018-09-19T04:46:50.303Z,6.50
2018-09-19T04:49:18.811Z,5.73
2018-09-19T04:51:47.588Z,8.23
2018-09-19T04:54:16.056Z,8.70
2018-09-19T04:56:44.535Z,6.80
2018-09-19T04:59:13.126Z,7.90
2018-09-19T05:01:41.604Z,6.10
2018-09-19T05:04:10.111Z,6.97
2018-09-19T05:06:38.667Z,6.90
2018-09-19T05:09:09.367Z,5.93
2018-09-19T05:11:37.854Z,6.20
2018-09-19T05:14:06.649Z,6.73
2018-09-19T05:16:35.163Z,6.77
2018-09-19T05:19:03.666Z,5.70
2018-09-19T05:21:32.330Z,6.70
2018-09-19T05:24:00.795Z,6.40
2018-09-19T05:26:29.394Z,6.20
2018-09-19T05:28:57.870Z,6.40
2018-09-19T05:31:26.391Z,6.60
2018-09-19T05:33:54.868Z,6.97
2018-09-19T05:36:23.350Z,6.43
2018-09-19T05:38:51.838Z,6.80
2018-09-19T05:41:20.553Z,5.80
2018-09-19T05:43:48.971Z,6.37
2018-09-19T05:46:17.485Z,7.57
2018-09-19T05:48:46.125Z,8.27
2018-09-19T05:51:14.540Z,6.10
2018-09-19T05:53:43.000Z,6.03
2018-09-19T05:56:11.714Z,7.10
2018-09-19T05:58:40.131Z,5.73
2018-09-19T06:01:08.604Z,5.60
2018-09-19T06:03:37.103Z,6.73
2018-09-19T06:06:05.873Z,5.10
2018-09-19T06:08:34.576Z,6.60
2018-09-19T06:11:03.041Z,6.73
2018-09-19T06:13:31.565Z,6.90
2018-09-19T06:16:00.122Z,6.47
2018-09-19T06:18:28.653Z,7.43
2018-09-19T06:20:57.080Z,6.40
2018-09-19T06:23:25.503Z,7.97
2018-09-19T06:25:54.007Z,7.73
2018-09-19T06:28:22.438Z,8.07
2018-09-19T06:30:50.956Z,7.63
2018-09-19T06:33:19.685Z,8.20
2018-09-19T06:35:48.195Z,7.23
2018-09-19T06:38:16.666Z,7.77
2018-09-19T06:40:45.188Z,7.70
2018-09-19T06:43:13.565Z,7.90
2018-09-19T06:45:42.068Z,8.80
2018-09-19T06:48:10.600Z,8.20
2018-09-19T06:50:39.059Z,7.70
2018-09-19T06:53:07.522Z,7.73
2018-09-19T06:55:36.198Z,8.40
2018-09-19T06:58:04.692Z,6.37
2018-09-19T07:00:33.235Z,7.47
2018-09-19T07:03:01.868Z,8.00
2018-09-19T07:05:30.436Z,7.70
2018-09-19T07:07:58.842Z,8.40
2018-09-19T07:10:27.639Z,7.90
2018-09-19T07:12:56.159Z,9.90
2018-09-19T07:15:24.690Z,9.50
2018-09-19T07:17:53.194Z,7.83
2018-09-19T07:20:21.675Z,6.60
2018-09-19T07:22:50.141Z,8.23
2018-09-19T07:25:18.673Z,8.20
2018-09-19T07:27:47.149Z,7.50
2018-09-19T07:30:15.563Z,8.10
2018-09-19T07:32:44.218Z,7.10
2018-09-19T07:35:12.732Z,7.27
2018-09-19T07:37:41.238Z,7.17
2018-09-19T07:40:09.727Z,6.60
2018-09-19T07:42:38.232Z,6.77
2018-09-19T07:45:06.919Z,6.90
2018-09-19T07:47:35.678Z,6.67
2018-09-19T07:50:04.621Z,6.73
2018-09-19T07:52:33.244Z,7.70
2018-09-19T07:55:01.793Z,6.70
2018-09-19T07:57:30.266Z,6.13
2018-09-19T07:59:58.875Z,7.00
2018-09-19T08:02:27.766Z,5.77
2018-09-19T08:04:56.558Z,7.20
2018-09-19T08:07:24.975Z,6.97
2018-09-19T08:09:53.833Z,7.60
2018-09-19T08:12:22.283Z,6.40
2018-09-19T08:14:50.834Z,5.97
2018-09-19T08:17:19.759Z,6.10
2018-09-19T08:19:48.235Z,6.27
2018-09-19T08:22:16.690Z,5.90
2018-09-19T08:24:45.342Z,6.17
2018-09-19T08:27:13.874Z,5.60
2018-09-19T08:29:42.358Z,5.93
2018-09-19T08:32:10.890Z,6.33
2018-09-19T08:34:39.304Z,5.37
2018-09-19T08:37:07.730Z,5.00
2018-09-19T08:39:36.262Z,5.63
2018-09-19T08:42:04.850Z,5.23
2018-09-19T08:44:33.295Z,5.40
2018-09-19T08:47:01.899Z,6.50
2018-09-19T08:49:30.406Z,5.90
2018-09-19T08:51:58.963Z,6.50
2018-09-19T08:54:27.523Z,5.90
2018-09-19T08:56:56.086Z,6.57
2018-09-19T08:59:24.507Z,6.17
2018-09-19T09:01:53.265Z,6.20
2018-09-19T09:04:21.662Z,6.13
2018-09-19T09:06:50.277Z,6.17
2018-09-19T09:09:18.946Z,5.83
2018-09-19T09:11:47.402Z,5.57
2018-09-19T09:14:15.918Z,4.53
2018-09-19T09:16:44.389Z,5.00
2018-09-19T09:19:12.859Z,4.97
2018-09-19T09:21:41.302Z,5.00
2018-09-19T09:24:09.860Z,4.73
2018-09-19T09:26:38.327Z,5.67
2018-09-19T09:29:06.842Z,4.73
2018-09-19T09:31:35.342Z,4.97
2018-09-19T09:34:03.872Z,4.60
2018-09-19T09:36:32.394Z,4.40
2018-09-19T09:39:00.933Z,5.83
2018-09-19T09:41:29.393Z,5.23
2018-09-19T09:43:57.914Z,4.93
2018-09-19T09:46:26.551Z,4.80
2018-09-19T09:48:55.129Z,4.80
2018-09-19T09:51:23.624Z,4.37
2018-09-19T09:53:52.248Z,4.20
2018-09-19T09:56:20.897Z,3.87
2018-09-19T09:58:49.352Z,3.67
2018-09-19T10:01:17.938Z,3.30
2018-09-19T10:03:46.474Z,4.80
2018-09-19T10:06:14.934Z,3.80
2018-09-19T10:08:43.614Z,2.97
2018-09-19T10:11:12.010Z,4.60
2018-09-19T10:13:40.542Z,4.00
2018-09-19T10:16:09.407Z,3.30
2018-09-19T10:18:37.970Z,4.00
2018-09-19T10:21:06.574Z,3.40
2018-09-19T10:23:35.246Z,3.20
2018-09-19T10:26:03.746Z,3.60
2018-09-19T10:28:32.374Z,3.20
2018-09-19T10:31:00.833Z,3.87
2018-09-19T10:33:29.271Z,3.03
2018-09-19T10:35:57.709Z,3.10
2018-09-19T10:38:26.386Z,3.10
2018-09-19T10:40:54.932Z,3.63
2018-09-19T10:43:23.382Z,3.03
2018-09-19T10:45:51.848Z,3.67
2018-09-19T10:48:20.371Z,3.37
2018-09-19T10:50:48.872Z,3.70
2018-09-19T10:53:17.456Z,2.73
2018-09-19T10:55:45.854Z,2.97
2018-09-19T10:58:14.359Z,3.80
2018-09-19T11:00:42.952Z,3.17
2018-09-19T11:03:11.378Z,3.13
2018-09-19T11:05:39.811Z,3.40
2018-09-19T11:08:08.343Z,3.83
2018-09-19T11:10:36.795Z,3.03
2018-09-19T11:13:05.311Z,3.10
2018-09-19T11:15:33.939Z,2.97
2018-09-19T11:18:02.384Z,3.27
2018-09-19T11:20:30.875Z,3.27
2018-09-19T11:22:59.462Z,3.00
2018-09-19T11:25:28.031Z,4.43
2018-09-19T11:27:56.567Z,7.90
2018-09-19T11:30:25.138Z,18.00
2018-09-19T11:32:53.776Z,4.33
2018-09-19T11:35:22.231Z,3.47
2018-09-19T11:37:50.683Z,3.30
2018-09-19T11:40:19.131Z,2.90
2018-09-19T11:42:47.602Z,3.07
2018-09-19T11:45:16.176Z,3.20
2018-09-19T11:47:44.583Z,2.93
2018-09-19T11:50:13.117Z,3.23
2018-09-19T11:52:41.623Z,3.77
2018-09-19T11:55:10.227Z,2.70
2018-09-19T11:57:38.727Z,2.90
2018-09-19T12:00:07.751Z,3.03
2018-09-19T12:02:36.511Z,2.77
2018-09-19T12:05:05.015Z,2.93
2018-09-19T12:07:33.729Z,3.10
2018-09-19T12:10:02.203Z,2.67
2018-09-19T12:12:31.147Z,3.27
2018-09-19T12:15:00.079Z,2.80
2018-09-19T12:17:28.535Z,3.10
2018-09-19T12:19:57.326Z,3.30
2018-09-19T12:22:25.751Z,2.73
2018-09-19T12:24:54.283Z,2.70
2018-09-19T12:27:22.877Z,2.63
2018-09-19T12:29:51.667Z,2.90
2018-09-19T12:32:20.334Z,2.70
2018-09-19T12:34:48.779Z,2.20
2018-09-19T12:37:19.694Z,3.27
2018-09-19T12:39:48.114Z,2.53
2018-09-19T12:42:16.542Z,3.03
2018-09-19T12:44:45.314Z,3.47
2018-09-19T12:47:13.837Z,2.53
2018-09-19T12:49:42.311Z,2.77
2018-09-19T12:52:10.870Z,2.90
2018-09-19T12:54:39.351Z,2.47
2018-09-19T12:57:07.783Z,3.33
2018-09-19T12:59:36.562Z,3.30
2018-09-19T13:02:05.064Z,3.50
2018-09-19T13:04:33.470Z,2.40
2018-09-19T13:07:02.163Z,3.03
2018-09-19T13:09:30.595Z,3.27
2018-09-19T13:11:59.193Z,3.03
2018-09-19T13:14:27.663Z,2.80
2018-09-19T13:16:56.107Z,3.63
2018-09-19T13:19:24.524Z,3.10
2018-09-19T13:21:53.434Z,3.40
2018-09-19T13:24:21.947Z,3.07
2018-09-19T13:26:50.363Z,3.60
2018-09-19T13:29:19.098Z,2.70
2018-09-19T13:31:47.522Z,3.20
2018-09-19T13:34:16.235Z,3.60
2018-09-19T13:36:44.882Z,3.23
2018-09-19T13:39:13.763Z,3.50
2018-09-19T13:41:42.178Z,3.70
2018-09-19T13:44:10.779Z,3.67
2018-09-19T13:46:39.307Z,3.13
2018-09-19T13:49:26.146Z,2.97
2018-09-19T13:51:54.816Z,3.50
2018-09-19T13:54:23.331Z,3.30
2018-09-19T13:56:51.987Z,2.87
2018-09-19T13:59:20.413Z,2.93
2018-09-19T14:01:48.837Z,3.07
2018-09-19T14:04:17.480Z,3.20
2018-09-19T14:06:46.088Z,3.53
2018-09-19T14:09:14.708Z,4.23
2018-09-19T14:11:43.557Z,3.10
2018-09-19T14:14:17.558Z,3.50
2018-09-19T14:16:46.183Z,2.50
2018-09-19T14:19:15.420Z,3.23
2018-09-19T14:21:43.886Z,2.77
2018-09-19T14:24:12.351Z,2.63
2018-09-19T14:26:41.142Z,2.90
2018-09-19T14:29:18.729Z,3.53
2018-09-19T14:31:47.587Z,3.00
2018-09-19T14:34:16.043Z,2.90
2018-09-19T14:36:44.898Z,3.10
2018-09-19T14:39:13.319Z,3.30
2018-09-19T14:41:41.735Z,3.40
2018-09-19T14:44:10.298Z,2.97
2018-09-19T14:46:47.644Z,2.53
2018-09-19T14:49:17.123Z,3.37
2018-09-19T14:51:47.800Z,3.30
2018-09-19T14:54:16.407Z,2.80
2018-09-19T14:56:44.910Z,2.90
2018-09-19T14:59:13.329Z,4.03
2018-09-19T15:01:41.915Z,3.20
2018-09-19T15:04:10.443Z,3.20
2018-09-19T15:06:38.942Z,3.13
2018-09-19T15:09:09.293Z,3.60
2018-09-19T15:11:38.083Z,3.60
2018-09-19T15:14:06.701Z,3.57
2018-09-19T15:16:35.167Z,3.13
2018-09-19T15:19:07.227Z,2.70
2018-09-19T15:21:35.727Z,3.83
2018-09-19T15:24:04.192Z,3.30
2018-09-19T15:26:32.638Z,3.50
2018-09-19T15:29:01.377Z,3.63
2018-09-19T15:31:29.803Z,3.53
2018-09-19T15:33:58.658Z,3.10
2018-09-19T15:36:27.318Z,3.70
2018-09-19T15:38:55.750Z,3.40
2018-09-19T15:41:24.267Z,3.33
2018-09-19T15:43:53.029Z,3.60
2018-09-19T15:46:21.504Z,3.90
2018-09-19T15:48:49.994Z,2.63
2018-09-19T15:51:18.560Z,3.00
2018-09-19T15:53:46.953Z,2.87
2018-09-19T15:56:15.590Z,3.93
2018-09-19T15:58:44.249Z,3.47
2018-09-19T16:01:12.915Z,4.20
2018-09-19T16:03:41.394Z,3.90
2018-09-19T16:06:10.310Z,3.90
2018-09-19T16:08:38.758Z,3.23
2018-09-19T16:11:07.471Z,3.07
2018-09-19T16:13:36.128Z,3.10
2018-09-19T16:16:05.018Z,3.73
2018-09-19T16:18:33.461Z,3.83
2018-09-19T16:21:01.996Z,3.60
2018-09-19T16:23:30.435Z,3.77
2018-09-19T16:25:59.039Z,4.27
2018-09-19T16:28:27.551Z,3.17
2018-09-19T16:30:56.016Z,3.73
2018-09-19T16:33:24.855Z,4.27
2018-09-19T16:35:53.505Z,3.23
2018-09-19T16:38:22.129Z,3.73
2018-09-19T16:40:50.695Z,3.53
2018-09-19T16:43:19.625Z,3.60
2018-09-19T16:45:49.235Z,2.83
2018-09-19T16:48:17.798Z,3.40
2018-09-19T16:50:46.410Z,3.53
2018-09-19T16:53:15.198Z,3.20
2018-09-19T16:55:43.630Z,3.27
2018-09-19T16:58:12.334Z,3.63
2018-09-19T17:00:40.863Z,3.50
2018-09-19T17:03:10.171Z,3.20
2018-09-19T17:05:38.991Z,3.93
2018-09-19T17:08:07.458Z,3.90
2018-09-19T17:10:35.972Z,3.80
2018-09-19T17:13:04.470Z,3.10
2018-09-19T17:15:32.985Z,3.47
2018-09-19T17:18:01.410Z,3.37
2018-09-19T17:20:30.519Z,4.20
2018-09-19T17:22:59.028Z,3.47
2018-09-19T17:25:27.515Z,3.07
2018-09-19T17:27:56.071Z,3.97
2018-09-19T17:30:24.599Z,3.57
2018-09-19T17:32:53.083Z,3.70
2018-09-19T17:35:21.647Z,3.37
2018-09-19T17:37:50.178Z,3.70
2018-09-19T17:40:18.689Z,3.90
2018-09-19T17:42:48.263Z,2.93
2018-09-19T17:45:17.710Z,3.80
2018-09-19T17:47:46.287Z,4.97
2018-09-19T17:50:15.145Z,3.33
2018-09-19T17:52:43.679Z,3.37
2018-09-19T17:55:12.123Z,3.57
2018-09-19T17:57:40.657Z,3.90
2018-09-19T18:00:10.785Z,3.97
2018-09-19T18:02:40.095Z,3.90
2018-09-19T18:05:09.251Z,4.17
2018-09-19T18:07:37.745Z,4.33
2018-09-19T18:10:06.497Z,3.90
2018-09-19T18:12:35.170Z,4.03
2018-09-19T18:15:03.727Z,3.47
2018-09-19T18:17:32.289Z,3.83
2018-09-19T18:20:01.489Z,3.80
2018-09-19T18:22:30.088Z,4.50
2018-09-19T18:24:58.889Z,4.30
2018-09-19T18:27:27.406Z,4.20
2018-09-19T18:29:56.453Z,3.77
2018-09-19T18:32:25.719Z,4.50
2018-09-19T18:34:54.388Z,4.23
2018-09-19T18:37:22.855Z,4.20
2018-09-19T18:39:51.421Z,4.00
2018-09-19T18:42:20.099Z,3.70
2018-09-19T18:44:49.159Z,4.90
2018-09-19T18:47:18.554Z,3.80
2018-09-19T18:49:47.402Z,4.73
2018-09-19T18:52:16.536Z,4.77
2018-09-19T18:54:45.563Z,4.30
2018-09-19T18:57:15.693Z,3.77
2018-09-19T18:59:44.344Z,4.33
2018-09-19T19:02:13.097Z,3.73
2018-09-19T19:04:42.068Z,4.70
2018-09-19T19:07:11.252Z,4.60
2018-09-19T19:09:40.469Z,4.23
2018-09-19T19:12:09.454Z,4.33
2018-09-19T19:14:38.530Z,3.80
2018-09-19T19:17:07.581Z,4.57
2018-09-19T19:19:36.768Z,4.37
2018-09-19T19:22:05.885Z,4.40
2018-09-19T19:24:35.200Z,4.20
2018-09-19T19:27:04.318Z,4.93
2018-09-19T19:29:33.349Z,4.00
2018-09-19T19:32:02.929Z,4.30
2018-09-19T19:34:32.959Z,5.50
2018-09-19T19:37:02.048Z,4.67
2018-09-19T19:39:32.109Z,4.07
2018-09-19T19:42:01.326Z,4.40
2018-09-19T19:44:30.370Z,3.83
2018-09-19T19:47:00.342Z,5.27
2018-09-19T19:49:29.484Z,4.13
2018-09-19T19:51:58.460Z,4.90
2018-09-19T19:54:27.479Z,4.57
2018-09-19T19:56:57.587Z,5.30
2018-09-19T19:59:26.803Z,4.60
2018-09-19T20:01:55.909Z,4.67
2018-09-19T20:04:25.030Z,4.63
2018-09-19T20:06:54.844Z,4.60
2018-09-19T20:09:23.564Z,5.70
2018-09-19T20:11:52.225Z,4.30
2018-09-19T20:14:20.706Z,5.27
2018-09-19T20:16:49.278Z,5.30
2018-09-19T20:19:17.867Z,5.10
2018-09-19T20:21:46.347Z,5.17
2018-09-19T20:24:15.475Z,4.50
2018-09-19T20:26:44.220Z,4.40
2018-09-19T20:29:13.203Z,4.70
2018-09-19T20:31:41.729Z,4.77
2018-09-19T20:34:11.060Z,4.70
2018-09-19T20:36:40.147Z,5.40
2018-09-19T20:39:09.883Z,5.40
2018-09-19T20:41:38.453Z,4.97
2018-09-19T20:44:06.981Z,4.60
2018-09-19T20:46:35.551Z,4.83
2018-09-19T20:49:04.319Z,4.90
2018-09-19T20:51:33.803Z,5.10
2018-09-19T20:54:02.293Z,6.10
2018-09-19T20:56:30.881Z,5.13
2018-09-19T20:58:59.339Z,5.10
2018-09-19T21:01:27.839Z,4.23
2018-09-19T21:03:56.551Z,5.77
2018-09-19T21:06:25.264Z,5.10
2018-09-19T21:08:53.740Z,4.23
2018-09-19T21:11:22.283Z,4.70
2018-09-19T21:13:50.851Z,4.70
2018-09-19T21:16:19.263Z,5.87
2018-09-19T21:18:47.869Z,4.93
2018-09-19T21:21:16.283Z,5.17
2018-09-19T21:23:44.824Z,4.50
2018-09-19T21:26:13.479Z,5.53
2018-09-19T21:28:41.979Z,5.63
2018-09-19T21:31:10.611Z,5.60
2018-09-19T21:33:39.104Z,5.53
2018-09-19T21:36:07.545Z,4.53
2018-09-19T21:38:35.989Z,4.97
2018-09-19T21:41:04.635Z,5.03
2018-09-19T21:43:33.060Z,5.73
2018-09-19T21:46:01.559Z,6.10
2018-09-19T21:48:30.079Z,5.47
2018-09-19T21:50:58.568Z,6.20
2018-09-19T21:53:27.035Z,4.83
2018-09-19T21:55:55.598Z,6.10
2018-09-19T21:58:24.054Z,5.57
2018-09-19T22:00:57.858Z,5.00
2018-09-19T22:03:26.448Z,5.10
2018-09-19T22:05:55.111Z,6.20
2018-09-19T22:08:24.128Z,4.37
2018-09-19T22:10:52.659Z,5.10
2018-09-19T22:13:21.132Z,5.30
2018-09-19T22:15:50.022Z,5.27
2018-09-19T22:18:18.455Z,5.20
2018-09-19T22:20:46.939Z,5.80
2018-09-19T22:23:15.359Z,5.60
2018-09-19T22:25:43.795Z,5.30
2018-09-19T22:28:12.296Z,5.40
2018-09-19T22:30:40.967Z,5.27
2018-09-19T22:33:09.631Z,5.37
2018-09-19T22:35:38.055Z,6.27
2018-09-19T22:38:06.970Z,4.83
2018-09-19T22:40:35.487Z,6.50
2018-09-19T22:43:03.994Z,4.53
2018-09-19T22:45:32.672Z,6.83
2018-09-19T22:48:01.196Z,5.70
2018-09-19T22:50:29.707Z,6.40
2018-09-19T22:52:58.267Z,5.63
2018-09-19T22:55:26.697Z,5.93
2018-09-19T22:57:55.174Z,5.73
2018-09-19T23:00:23.688Z,5.40
2018-09-19T23:02:52.139Z,5.47
2018-09-19T23:05:20.623Z,5.47
2018-09-19T23:07:49.428Z,5.33
2018-09-19T23:10:17.907Z,5.37
2018-09-19T23:12:46.314Z,6.37
2018-09-19T23:15:15.011Z,5.43
2018-09-19T23:17:43.438Z,5.23
2018-09-19T23:20:11.927Z,5.80
2018-09-19T23:22:40.663Z,6.10
2018-09-19T23:25:09.338Z,5.43
2018-09-19T23:27:37.786Z,5.83
2018-09-19T23:30:06.358Z,5.40
2018-09-19T23:32:34.770Z,5.47
2018-09-19T23:35:03.523Z,5.70
2018-09-19T23:37:31.950Z,5.37
2018-09-19T23:40:00.480Z,5.47
2018-09-19T23:42:29.475Z,5.50
2018-09-19T23:44:58.316Z,5.87
2018-09-19T23:47:26.739Z,6.20
2018-09-19T23:49:55.172Z,5.40
2018-09-19T23:52:23.946Z,5.37
2018-09-19T23:54:52.711Z,6.40
2018-09-19T23:57:21.239Z,5.97
2018-09-19T23:59:50.123Z,6.07
